Time;durP1;ratioP1;P1;durP2;ratioP2;P2;SDS_P1;SDS_P2;PMS_P1;PMS_P2;Temp;Humidity;BMP_temperature;BMP_pressure;BME280_temperature;BME280_humidity;BME280_pressure;Samples;Min_cycle;Max_cycle;Signal;HPM_P1;HPM_P2
2021/01/07 00:01:15;;;;;;;11.47;9.90;;;;;;;5.51;63.52;97465.31;8271969;28;20708;-78
2021/01/07 00:05:16;;;;;;;9.97;9.00;;;;;;;5.60;63.19;97462.47;8271165;28;20202;-78
2021/01/07 00:09:19;;;;;;;10.60;9.60;;;;;;;5.55;63.14;97472.03;8273157;28;20220;-77
2021/01/07 00:13:21;;;;;;;10.50;9.40;;;;;;;5.55;63.05;97465.16;8274377;28;20697;-78
2021/01/07 00:17:22;;;;;;;9.93;9.03;;;;;;;5.52;63.38;97467.84;8275201;28;20221;-78
2021/01/07 00:21:24;;;;;;;9.60;8.80;;;;;;;5.55;63.29;97470.31;8273680;28;20208;-78
2021/01/07 00:25:27;;;;;;;10.80;9.67;;;;;;;5.54;63.78;97466.06;8276413;28;20271;-78
2021/01/07 00:29:28;;;;;;;10.70;9.67;;;;;;;5.55;63.50;97475.44;8274384;28;20205;-79
2021/01/07 00:33:30;;;;;;;10.73;9.80;;;;;;;5.47;63.66;97473.13;8272194;28;20197;-79
2021/01/07 00:37:32;;;;;;;10.07;9.27;;;;;;;5.45;63.39;97481.78;8272763;28;20245;-78
2021/01/07 00:41:34;;;;;;;10.77;9.77;;;;;;;5.38;63.69;97475.97;8270016;28;20212;-78
2021/01/07 00:45:36;;;;;;;10.70;9.70;;;;;;;5.42;63.62;97474.97;8271756;28;20212;-79
2021/01/07 00:49:38;;;;;;;11.40;10.30;;;;;;;5.33;63.55;97477.00;8270354;28;20224;-78
2021/01/07 00:53:39;;;;;;;10.40;9.50;;;;;;;5.35;63.76;97482.91;8271798;28;20201;-78
2021/01/07 00:57:42;;;;;;;10.70;9.80;;;;;;;5.23;63.75;97477.28;8271680;28;20226;-78
2021/01/07 01:01:45;;;;;;;10.93;9.93;;;;;;;5.33;63.44;97489.84;8270802;28;20237;-78
2021/01/07 01:05:47;;;;;;;11.13;10.13;;;;;;;5.37;63.73;97486.28;8270938;28;20209;-78
2021/01/07 01:09:49;;;;;;;9.63;8.70;;;;;;;5.92;78.67;97488.81;8271162;28;20202;-78
2021/01/07 01:13:52;;;;;;;15.07;9.47;;;;;;;9.17;80.60;97488.00;8275980;28;20589;-78
2021/01/07 01:17:53;;;;;;;10.93;9.93;;;;;;;6.75;61.25;97491.94;8274132;28;20229;-79
2021/01/07 01:21:55;;;;;;;10.87;9.87;;;;;;;6.06;61.24;97499.50;8274320;28;20225;-79
2021/01/07 01:25:57;;;;;;;10.33;9.43;;;;;;;5.95;62.17;97501.56;8269930;28;20205;-78
2021/01/07 01:29:59;;;;;;;10.50;9.53;;;;;;;5.74;62.75;97506.50;8271511;28;20202;-79
2021/01/07 01:34:01;;;;;;;10.53;9.63;;;;;;;5.71;62.69;97505.78;8272559;28;20634;-78
2021/01/07 01:38:03;;;;;;;10.33;9.43;;;;;;;5.61;62.68;97506.06;8272191;28;20229;-78
2021/01/07 01:42:06;;;;;;;9.23;8.43;;;;;;;5.47;63.14;97511.63;8272143;28;20555;-78
2021/01/07 01:46:08;;;;;;;8.47;7.77;;;;;;;5.20;63.36;97521.03;8272358;28;20268;-79
2021/01/07 01:50:11;;;;;;;7.83;7.20;;;;;;;5.14;63.51;97517.78;8271471;28;20198;-78
2021/01/07 01:54:12;;;;;;;8.03;7.33;;;;;;;5.22;62.54;97513.28;8271890;28;20642;-78
2021/01/07 01:58:15;;;;;;;7.70;7.00;;;;;;;5.14;62.38;97520.34;8272382;28;20238;-78
2021/01/07 02:02:18;;;;;;;7.37;6.67;;;;;;;5.28;62.33;97515.66;8271828;28;20198;-78
2021/01/07 02:06:23;;;;;;;7.83;7.17;;;;;;;5.23;62.89;97510.66;8271389;28;20205;-78
2021/01/07 02:10:26;;;;;;;8.30;7.60;;;;;;;5.22;63.24;97521.81;8272132;28;20213;-78
2021/01/07 02:14:28;;;;;;;9.43;8.63;;;;;;;5.22;63.07;97521.00;8274743;28;20244;-78
2021/01/07 02:18:30;;;;;;;9.43;8.63;;;;;;;5.21;63.26;97525.25;8279596;28;20234;-78
2021/01/07 02:22:33;;;;;;;10.00;9.10;;;;;;;5.20;63.19;97509.94;8277663;28;20639;-78
2021/01/07 02:26:35;;;;;;;10.67;9.67;;;;;;;5.16;63.49;97516.88;8277672;28;20209;-78
2021/01/07 02:30:36;;;;;;;10.47;9.50;;;;;;;5.24;63.14;97517.47;8272863;28;20202;-79
2021/01/07 02:34:38;;;;;;;11.00;10.00;;;;;;;5.27;63.06;97512.28;8275314;28;20553;-78
2021/01/07 02:38:41;;;;;;;10.80;9.90;;;;;;;5.23;63.28;97517.53;8272711;28;20225;-77
2021/01/07 02:42:42;;;;;;;11.13;10.03;;;;;;;5.28;62.80;97513.94;8272242;28;20205;-77
2021/01/07 02:46:44;;;;;;;11.63;10.43;;;;;;;5.25;62.50;97519.19;8271794;28;20213;-78
2021/01/07 02:50:46;;;;;;;10.80;9.90;;;;;;;5.22;63.08;97514.13;8293604;28;20221;-78
2021/01/07 02:54:49;;;;;;;11.30;10.30;;;;;;;5.13;62.79;97513.56;8304775;28;20204;-78
2021/01/07 02:58:50;;;;;;;11.27;10.27;;;;;;;5.24;62.76;97517.47;8304652;28;20580;-77
2021/01/07 03:02:52;;;;;;;11.67;10.67;;;;;;;5.25;62.75;97519.19;8304092;28;20209;-78
2021/01/07 03:06:54;;;;;;;12.27;11.00;;;;;;;5.14;63.12;97517.78;8304567;28;20586;-78
2021/01/07 03:10:56;;;;;;;12.77;11.63;;;;;;;5.19;62.79;97518.50;8304062;28;20228;-78
2021/01/07 03:14:58;;;;;;;13.07;11.70;;;;;;;5.21;62.82;97514.16;8304568;28;20271;-78
2021/01/07 03:19:00;;;;;;;12.97;11.87;;;;;;;5.20;63.10;97512.50;8303728;28;20240;-78
2021/01/07 03:23:01;;;;;;;14.60;13.10;;;;;;;5.09;62.81;97513.63;8304399;28;20637;-78
2021/01/07 03:27:05;;;;;;;14.63;13.23;;;;;;;4.90;64.05;97512.50;8305819;28;20751;-79
2021/01/07 03:31:06;;;;;;;14.67;13.10;;;;;;;5.05;63.37;97513.78;8310799;28;20209;-80
2021/01/07 03:35:10;;;;;;;15.03;13.63;;;;;;;5.04;62.92;97505.22;8311164;28;20201;-80
2021/01/07 03:39:11;;;;;;;14.63;13.23;;;;;;;5.18;62.13;97504.84;8310248;28;20220;-80
2021/01/07 03:43:14;;;;;;;15.20;13.80;;;;;;;5.23;62.20;97504.69;8310719;28;20277;-79
2021/01/07 03:47:16;;;;;;;14.83;13.43;;;;;;;5.22;62.15;97505.59;8310567;28;20649;-79
2021/01/07 03:51:18;;;;;;;14.60;13.30;;;;;;;5.07;62.41;97517.16;8311346;28;20209;-79
2021/01/07 03:55:19;;;;;;;15.30;13.83;;;;;;;5.20;62.07;97512.50;8311000;28;20201;-80
2021/01/07 03:59:22;;;;;;;15.40;14.00;;;;;;;5.13;62.32;97509.25;8311798;28;20212;-80
2021/01/07 04:03:24;;;;;;;16.20;14.70;;;;;;;5.11;62.40;97511.03;8310957;28;20205;-80
2021/01/07 04:07:25;;;;;;;15.50;14.03;;;;;;;5.16;62.47;97498.06;8311318;28;20209;-79
2021/01/07 04:11:27;;;;;;;16.70;15.10;;;;;;;5.06;61.89;97510.31;8311557;28;20676;-79
2021/01/07 04:15:30;;;;;;;16.87;15.27;;;;;;;5.13;61.87;97513.56;8311441;28;20246;-79
2021/01/07 04:19:31;;;;;;;17.13;15.53;;;;;;;5.12;62.42;97517.84;8312163;28;20201;-80
2021/01/07 04:23:33;;;;;;;17.50;15.90;;;;;;;5.09;62.28;97505.94;8310717;28;20216;-79
2021/01/07 04:27:35;;;;;;;17.33;15.53;;;;;;;5.03;62.37;97513.81;8307127;28;20208;-79
2021/01/07 04:31:38;;;;;;;17.93;16.23;;;;;;;5.11;62.04;97505.06;8308419;28;20201;-78
2021/01/07 04:35:40;;;;;;;18.20;16.47;;;;;;;5.15;62.41;97499.78;8308918;28;20581;-79
2021/01/07 04:39:42;;;;;;;17.60;16.00;;;;;;;5.08;61.85;97504.28;8309882;28;20208;-79
2021/01/07 04:43:44;;;;;;;18.17;16.47;;;;;;;5.12;62.11;97497.28;8311619;28;20570;-79
2021/01/07 04:47:50;;;;;;;18.43;16.70;;;;;;;5.13;62.17;97495.59;8313246;28;20271;-79
2021/01/07 04:51:52;;;;;;;18.63;16.83;;;;;;;5.07;62.18;97506.88;8310200;28;20197;-79
2021/01/07 04:55:54;;;;;;;17.80;16.10;;;;;;;5.04;62.27;97509.53;8309672;28;20264;-79
2021/01/07 04:59:55;;;;;;;18.73;16.73;;;;;;;5.14;62.18;97505.81;8309117;28;20228;-79
2021/01/07 05:03:59;;;;;;;18.93;17.03;;;;;;;5.22;61.83;97510.72;8310648;28;20201;-79
2021/01/07 05:08:05;;;;;;;18.87;17.07;;;;;;;5.20;61.81;97512.50;8310063;28;20212;-78
2021/01/07 05:12:07;;;;;;;18.30;16.50;;;;;;;5.18;61.92;97504.84;8309869;28;20221;-79
2021/01/07 05:16:20;;;;;;;19.13;17.13;;;;;;;5.18;61.88;97520.25;8308878;28;20247;-78
2021/01/07 05:20:23;;;;;;;19.53;17.50;;;;;;;5.17;61.56;97526.25;8309099;28;20201;-78
2021/01/07 05:24:24;;;;;;;18.77;16.97;;;;;;;5.20;61.25;97528.72;8308847;28;20232;-78
2021/01/07 05:28:29;;;;;;;18.97;17.03;;;;;;;5.18;61.85;97520.25;8305587;28;20656;-80
2021/01/07 05:32:35;;;;;;;19.30;17.40;;;;;;;5.20;61.69;97523.59;8310751;28;20231;-80
2021/01/07 05:36:38;;;;;;;20.27;18.37;;;;;;;5.13;61.40;97524.66;8306228;28;20723;-77
2021/01/07 05:40:40;;;;;;;19.40;17.50;;;;;;;5.14;61.43;97523.78;8301430;28;20209;-78
2021/01/07 05:44:42;;;;;;;21.30;19.30;;;;;;;5.12;61.58;97524.69;8300483;28;20208;-78
2021/01/07 05:48:44;;;;;;;20.30;18.30;;;;;;;5.09;61.64;97518.78;8300736;28;20216;-78
2021/01/07 05:52:48;;;;;;;20.73;18.67;;;;;;;5.12;61.40;97517.00;8300624;28;20683;-77
2021/01/07 05:56:50;;;;;;;20.80;18.70;;;;;;;5.05;61.44;97521.50;8300313;28;20696;-77
2021/01/07 06:00:54;;;;;;;20.53;18.53;;;;;;;5.16;61.30;97523.72;8300038;28;20204;-78
2021/01/07 06:04:58;;;;;;;21.40;19.03;;;;;;;5.13;61.56;97521.25;8301659;28;20208;-78
2021/01/07 06:09:03;;;;;;;20.70;18.57;;;;;;;5.12;61.03;97512.69;8300658;28;20209;-77
2021/01/07 06:13:05;;;;;;;20.70;18.70;;;;;;;5.15;60.80;97522.06;8299758;28;20566;-77
2021/01/07 06:17:08;;;;;;;20.70;18.53;;;;;;;5.11;61.38;97520.47;8299967;28;20295;-77
2021/01/07 06:21:11;;;;;;;21.43;19.23;;;;;;;5.06;61.54;97530.84;8300450;28;20212;-78
2021/01/07 06:25:15;;;;;;;22.50;20.30;;;;;;;5.11;61.46;97528.16;8299876;28;20218;-78
2021/01/07 06:29:16;;;;;;;21.73;19.53;;;;;;;5.11;61.33;97533.31;8299940;28;20653;-78
2021/01/07 06:33:18;;;;;;;21.57;19.53;;;;;;;5.13;61.16;97529.78;8299742;28;20205;-77
2021/01/07 06:37:30;;;;;;;23.07;20.77;;;;;;;5.11;61.29;97528.16;8299490;28;20232;-77
2021/01/07 06:41:33;;;;;;;22.40;20.20;;;;;;;5.12;61.44;97537.53;8307282;28;20208;-80
2021/01/07 06:45:35;;;;;;;22.00;19.97;;;;;;;5.08;60.94;97529.94;8307884;28;20212;-80
2021/01/07 06:49:43;;;;;;;21.90;19.70;;;;;;;5.11;61.13;97529.00;8308879;28;20292;-80
2021/01/07 06:53:46;;;;;;;23.07;20.77;;;;;;;5.05;61.31;97531.75;8309720;28;20216;-80
2021/01/07 06:57:50;;;;;;;22.27;20.10;;;;;;;5.15;60.88;97532.31;8327903;28;20224;-79
2021/01/07 07:01:54;;;;;;;22.13;20.03;;;;;;;5.13;60.72;97536.66;8309330;28;20208;-79
2021/01/07 07:05:58;;;;;;;22.30;20.10;;;;;;;5.10;60.64;97542.72;8309757;28;20593;-80
2021/01/07 07:10:43;;;;;;;22.70;20.43;;;;;;;5.13;60.55;97546.94;8306682;28;20228;-78
2021/01/07 07:14:51;;;;;;;23.07;20.87;;;;;;;5.09;60.60;97547.00;8293565;28;20244;-79
2021/01/07 07:18:56;;;;;;;23.37;21.07;;;;;;;5.01;61.03;97546.41;8308961;28;20232;-78
2021/01/07 07:23:12;;;;;;;22.43;20.23;;;;;;;5.08;60.34;97550.47;8310051;28;20569;-79
2021/01/07 07:27:14;;;;;;;21.77;19.67;;;;;;;5.12;60.26;97558.91;8305978;28;20208;-78
2021/01/07 07:31:38;;;;;;;21.90;19.70;;;;;;;5.14;60.15;97557.16;8308413;28;20196;-78
2021/01/07 07:35:43;;;;;;;22.03;19.93;;;;;;;5.17;60.66;97561.34;8307701;28;20212;-78
2021/01/07 07:39:48;;;;;;;22.93;20.63;;;;;;;5.15;60.52;97563.13;8311569;28;20284;-80
2021/01/07 07:43:53;;;;;;;24.90;22.33;;;;;;;5.11;60.54;97572.63;8311896;28;20201;-80
2021/01/07 07:47:56;;;;;;;25.70;23.00;;;;;;;5.13;60.39;97576.00;8313607;28;20216;-80
2021/01/07 07:51:58;;;;;;;24.43;22.03;;;;;;;5.20;60.43;97574.94;8313793;28;20208;-79
2021/01/07 07:55:59;;;;;;;25.37;22.77;;;;;;;5.07;60.17;97583.88;8314620;28;20576;-79
2021/01/07 08:00:15;;;;;;;24.57;22.07;;;;;;;5.14;60.10;97582.84;8314935;28;20213;-79
2021/01/07 08:04:19;;;;;;;25.97;23.37;;;;;;;5.11;60.38;97585.47;8310181;28;20205;-79
2021/01/07 08:08:24;;;;;;;25.77;23.27;;;;;;;5.20;60.19;97581.81;8310631;28;20212;-79
2021/01/07 08:12:26;;;;;;;28.97;25.97;;;;;;;5.09;60.48;97576.97;8309131;28;20232;-79
2021/01/07 08:16:30;;;;;;;27.50;24.70;;;;;;;5.13;60.34;97588.00;8309153;28;20236;-79
2021/01/07 08:20:32;;;;;;;26.83;24.13;;;;;;;5.19;60.61;97586.09;8309885;28;20209;-79
2021/01/07 08:24:34;;;;;;;28.50;25.70;;;;;;;5.10;60.50;97588.91;8310481;28;20208;-79
2021/01/07 08:28:38;;;;;;;27.83;25.03;;;;;;;5.15;60.17;97591.38;8310015;28;20224;-79
2021/01/07 08:32:41;;;;;;;27.03;24.33;;;;;;;5.20;60.28;97586.94;8310478;28;20232;-80
2021/01/07 08:36:44;;;;;;;26.87;24.07;;;;;;;5.11;60.64;97587.22;8291527;28;20221;-80
2021/01/07 08:40:46;;;;;;;27.83;24.93;;;;;;;5.14;60.86;97587.97;8309645;28;20262;-80
2021/01/07 08:44:59;;;;;;;28.27;25.37;;;;;;;5.20;60.83;97587.78;8309634;28;20224;-79
2021/01/07 08:49:02;;;;;;;26.80;24.17;;;;;;;5.24;60.42;97591.09;8307200;28;20201;-78
2021/01/07 08:53:13;;;;;;;27.30;24.50;;;;;;;5.18;60.79;97589.56;8301659;28;20221;-79
2021/01/07 08:57:15;;;;;;;27.13;24.43;;;;;;;5.21;60.36;97580.91;8310921;28;20220;-80
2021/01/07 09:01:17;;;;;;;27.67;24.97;;;;;;;5.28;60.28;97588.38;8310768;28;20197;-80
2021/01/07 09:05:19;;;;;;;28.13;25.23;;;;;;;5.33;60.49;97595.97;8307726;28;20645;-78
2021/01/07 09:09:21;;;;;;;27.77;25.03;;;;;;;5.34;60.58;97595.06;8306177;28;20228;-78
2021/01/07 09:13:24;;;;;;;28.37;25.40;;;;;;;5.37;60.61;97592.44;8289774;28;20266;-78
2021/01/07 09:17:37;;;;;;;23.57;15.13;;;;;;;7.48;88.80;97592.28;8311588;28;20232;-81
2021/01/07 09:21:40;;;;;;;23.30;20.90;;;;;;;9.03;62.58;97595.47;8316697;28;20573;-80
2021/01/07 09:25:44;;;;;;;21.50;19.47;;;;;;;9.52;54.48;97591.53;8317334;28;20339;-81
2021/01/07 09:29:47;;;;;;;23.00;20.80;;;;;;;9.02;53.33;97604.13;8307872;28;20205;-78
2021/01/07 09:33:49;;;;;;;26.47;23.97;;;;;;;7.26;54.29;97597.41;8302504;28;20217;-78
2021/01/07 09:37:51;;;;;;;26.77;24.07;;;;;;;6.88;55.59;97597.03;8307011;28;20224;-78
2021/01/07 09:41:53;;;;;;;27.10;24.40;;;;;;;6.49;56.50;97594.94;8308174;28;20212;-78
2021/01/07 09:45:55;;;;;;;27.13;24.40;;;;;;;6.30;57.41;97595.53;8305870;28;20197;-79
2021/01/07 09:49:58;;;;;;;28.83;26.03;;;;;;;6.15;58.11;97591.78;8307345;28;20213;-78
2021/01/07 09:54:00;;;;;;;28.47;25.50;;;;;;;6.08;58.79;97595.44;8304153;28;20557;-78
2021/01/07 09:58:02;;;;;;;29.70;26.60;;;;;;;5.95;59.02;97594.09;8303808;28;20234;-78
2021/01/07 10:02:11;;;;;;;30.83;27.73;;;;;;;5.66;59.08;97586.41;8306626;28;20208;-78
2021/01/07 10:06:12;;;;;;;30.23;27.23;;;;;;;5.85;59.31;97591.81;8308740;28;20197;-79
2021/01/07 10:10:14;;;;;;;30.93;27.73;;;;;;;5.65;60.23;97587.31;8312017;28;20240;-79
2021/01/07 10:14:17;;;;;;;29.13;26.23;;;;;;;5.77;60.04;97585.22;8312242;28;20239;-79
2021/01/07 10:18:19;;;;;;;29.63;26.63;;;;;;;5.81;59.60;97579.97;8310615;28;20313;-78
2021/01/07 10:22:21;;;;;;;31.13;27.83;;;;;;;5.75;59.81;97581.88;8304654;28;20572;-79
2021/01/07 10:26:23;;;;;;;30.77;27.73;;;;;;;5.78;60.02;97579.22;8305862;28;20205;-79
2021/01/07 10:30:26;;;;;;;29.80;26.80;;;;;;;5.71;59.93;97575.97;8305041;28;20258;-79
2021/01/07 10:34:28;;;;;;;32.13;29.00;;;;;;;5.71;60.47;97575.13;8306653;28;20604;-79
2021/01/07 10:38:32;;;;;;;29.70;26.70;;;;;;;5.73;60.00;97570.78;8312565;28;20672;-79
2021/01/07 10:42:34;;;;;;;29.63;26.43;;;;;;;5.74;59.86;97564.78;8318779;28;20224;-79
2021/01/07 10:46:37;;;;;;;29.47;26.57;;;;;;;5.62;59.93;97556.56;8308887;28;20208;-78
2021/01/07 10:50:40;;;;;;;30.77;27.77;;;;;;;5.77;59.95;97560.38;8306177;28;20209;-78
2021/01/07 10:54:51;;;;;;;29.27;26.43;;;;;;;5.80;60.10;97554.31;8304949;28;20292;-78
2021/01/07 10:59:07;;;;;;;29.03;26.20;;;;;;;5.63;60.67;97558.22;8307443;28;20213;-78
2021/01/07 11:03:21;;;;;;;44.90;26.93;;;;;;;5.68;60.18;97561.50;8297781;28;20543;-78
2021/01/07 11:07:26;;;;;;;30.63;26.60;;;;;;;5.75;59.94;97551.03;8306834;28;20212;-78
2021/01/07 11:11:32;;;;;;;28.20;25.40;;;;;;;5.77;59.57;97541.53;8306530;28;20692;-78
2021/01/07 11:15:35;;;;;;;30.33;25.53;;;;;;;5.83;60.10;97542.19;8309060;28;20225;-78
2021/01/07 11:19:38;;;;;;;30.53;24.10;;;;;;;5.86;61.18;97546.38;8311876;28;20229;-78
2021/01/07 11:23:40;;;;;;;27.17;24.00;;;;;;;5.84;60.38;97541.28;8302988;28;20201;-79
2021/01/07 11:27:42;;;;;;;30.63;24.07;;;;;;;5.85;60.08;97527.56;8307103;28;20247;-78
2021/01/07 11:31:44;;;;;;;28.13;24.50;;;;;;;5.88;60.73;97526.63;8307392;28;20547;-78
2021/01/07 11:35:48;;;;;;;27.50;24.47;;;;;;;5.99;59.45;97509.16;8307514;28;20259;-78
2021/01/07 11:40:04;;;;;;;27.80;24.83;;;;;;;6.20;60.67;97510.16;8307577;28;20702;-78
2021/01/07 11:44:14;;;;;;;29.63;26.23;;;;;;;6.08;60.40;97510.59;8304650;28;20208;-78
2021/01/07 11:48:19;;;;;;;27.50;23.40;;;;;;;6.04;60.11;97507.28;8306113;28;20205;-78
2021/01/07 11:52:22;;;;;;;28.67;23.30;;;;;;;5.96;60.09;97500.69;8304194;28;20212;-79
2021/01/07 11:56:24;;;;;;;25.07;22.47;;;;;;;6.30;61.74;97502.13;8311873;28;20202;-79
2021/01/07 12:00:27;;;;;;;23.17;20.77;;;;;;;6.13;59.46;97495.00;8305832;28;20236;-78
2021/01/07 12:04:29;;;;;;;22.73;20.40;;;;;;;6.02;59.48;97495.38;8302704;28;20590;-78
2021/01/07 12:09:03;;;;;;;22.97;20.47;;;;;;;6.07;59.17;97489.19;8302065;28;20300;-78
2021/01/07 12:13:09;;;;;;;23.13;20.40;;;;;;;6.09;59.00;97485.72;8274080;28;20220;-78
2021/01/07 12:17:13;;;;;;;23.33;20.93;;;;;;;6.18;58.80;97480.25;8300233;28;20731;-78
2021/01/07 12:21:15;;;;;;;21.77;19.67;;;;;;;6.09;58.35;97486.53;8305442;28;20255;-78
2021/01/07 12:25:18;;;;;;;19.50;17.47;;;;;;;6.31;57.58;97480.69;8307004;28;20202;-78
2021/01/07 12:29:21;;;;;;;22.97;20.77;;;;;;;6.30;57.98;97474.69;8305062;28;20618;-78
2021/01/07 12:33:29;;;;;;;20.80;18.70;;;;;;;6.57;57.44;97469.47;8305798;28;20205;-78
2021/01/07 12:37:40;;;;;;;22.13;18.70;;;;;;;6.74;56.50;97468.84;8304302;28;20221;-79
2021/01/07 12:41:49;;;;;;;20.07;17.97;;;;;;;6.68;56.39;97467.31;8303107;28;20214;-78
2021/01/07 12:45:52;;;;;;;20.27;18.13;;;;;;;6.54;56.66;97461.84;8303728;28;20205;-78
2021/01/07 12:49:56;;;;;;;17.70;15.87;;;;;;;6.56;55.90;97458.31;8303117;28;20232;-78
2021/01/07 12:54:00;;;;;;;18.10;16.30;;;;;;;6.63;55.88;97451.22;8301542;28;20208;-78
2021/01/07 12:58:10;;;;;;;16.67;14.97;;;;;;;6.67;54.66;97447.66;8301070;28;20228;-79
2021/01/07 13:02:31;;;;;;;17.17;15.47;;;;;;;6.77;53.14;97443.00;8302956;28;20189;-78
2021/01/07 13:06:38;;;;;;;18.83;16.87;;;;;;;6.98;54.07;97441.34;8301049;28;20209;-78
2021/01/07 13:10:40;;;;;;;16.53;14.93;;;;;;;6.89;53.87;97437.38;8304898;28;20555;-80
2021/01/07 13:14:43;;;;;;;14.37;12.67;;;;;;;6.44;52.77;97451.88;8306437;28;20739;-78
2021/01/07 13:18:45;;;;;;;13.57;12.20;;;;;;;6.24;52.83;97455.19;8306976;28;20677;-79
2021/01/07 13:22:48;;;;;;;17.13;14.03;;;;;;;6.06;53.42;97455.81;8311291;28;20220;-79
2021/01/07 13:26:50;;;;;;;13.60;12.20;;;;;;;6.01;51.87;97462.84;8310930;28;20200;-79
2021/01/07 13:30:55;;;;;;;14.67;13.17;;;;;;;5.87;53.59;97471.81;8310160;28;20192;-79
2021/01/07 13:34:56;;;;;;;14.27;12.63;;;;;;;5.76;52.63;97467.94;8309071;28;20212;-80
2021/01/07 13:38:59;;;;;;;13.43;12.03;;;;;;;5.63;53.66;97465.75;8309463;28;20263;-79
2021/01/07 13:43:06;;;;;;;14.70;12.53;;;;;;;5.52;54.05;97478.13;8307379;28;20197;-79
2021/01/07 13:47:10;;;;;;;10.57;9.47;;;;;;;5.59;53.09;97482.16;8304881;28;20641;-79
2021/01/07 13:51:12;;;;;;;10.87;9.77;;;;;;;5.53;53.39;97479.78;8308228;28;20212;-80
2021/01/07 13:55:15;;;;;;;12.50;10.23;;;;;;;5.67;53.61;97484.47;8308317;28;20193;-79
2021/01/07 13:59:17;;;;;;;10.60;9.60;;;;;;;5.55;53.22;97488.28;8308086;28;20684;-80
2021/01/07 14:03:20;;;;;;;9.77;8.83;;;;;;;5.64;52.77;97488.00;8309383;28;20217;-81
2021/01/07 14:07:24;;;;;;;9.67;8.67;;;;;;;5.63;51.69;97488.88;8311181;28;20197;-81
2021/01/07 14:11:27;;;;;;;8.80;7.97;;;;;;;5.58;51.69;97497.59;8294694;28;20737;-81
2021/01/07 14:15:29;;;;;;;11.00;7.57;;;;;;;5.49;50.52;97491.88;8316737;28;20682;-80
2021/01/07 14:19:32;;;;;;;10.87;9.47;;;;;;;5.59;51.14;97496.72;8315548;28;20227;-81
2021/01/07 14:23:33;;;;;;;10.77;8.90;;;;;;;5.62;51.48;97497.47;8316091;28;20199;-81
2021/01/07 14:27:43;;;;;;;9.20;8.30;;;;;;;5.68;51.75;97496.44;8316721;28;20197;-80
2021/01/07 14:31:44;;;;;;;10.17;9.10;;;;;;;5.69;52.10;97485.25;8314917;28;20577;-79
2021/01/07 14:35:47;;;;;;;10.97;9.87;;;;;;;5.73;51.99;97499.72;8316178;28;20201;-80
2021/01/07 14:39:50;;;;;;;11.53;10.43;;;;;;;5.63;52.08;97498.31;8316578;28;20236;-80
2021/01/07 14:43:54;;;;;;;13.07;11.73;;;;;;;5.63;52.34;97506.03;8316100;28;20221;-80
2021/01/07 14:47:57;;;;;;;11.90;10.70;;;;;;;5.66;52.24;97508.50;8309245;28;20219;-79
2021/01/07 14:52:05;;;;;;;12.73;11.43;;;;;;;5.63;52.87;97512.00;8309971;28;20227;-79
2021/01/07 14:56:07;;;;;;;11.40;10.20;;;;;;;5.73;52.71;97511.69;8310968;28;20571;-80
2021/01/07 15:00:11;;;;;;;11.20;10.00;;;;;;;5.73;52.45;97510.00;8313792;28;20232;-79
2021/01/07 15:04:25;;;;;;;13.20;11.90;;;;;;;5.68;52.28;97514.44;8310510;28;20201;-79
2021/01/07 15:08:33;;;;;;;12.50;10.90;;;;;;;5.54;52.43;97511.44;8310595;28;20252;-79
2021/01/07 15:12:36;;;;;;;11.97;10.70;;;;;;;5.60;52.57;97517.25;8310493;28;20221;-79
2021/01/07 15:16:44;;;;;;;12.30;11.03;;;;;;;5.57;52.30;97512.19;8308513;28;20703;-79
2021/01/07 15:20:46;;;;;;;11.63;10.43;;;;;;;5.65;52.75;97514.50;8305950;28;20209;-79
2021/01/07 15:24:57;;;;;;;12.50;11.20;;;;;;;5.59;52.27;97510.41;8305687;28;20211;-79
2021/01/07 15:29:01;;;;;;;13.30;11.90;;;;;;;5.57;53.20;97508.78;8306991;28;20217;-79
2021/01/07 15:33:05;;;;;;;14.40;12.90;;;;;;;5.49;53.72;97512.44;8311057;28;20288;-79
2021/01/07 15:37:20;;;;;;;13.70;12.30;;;;;;;5.44;53.59;97506.59;8305303;28;20228;-79
2021/01/07 15:42:29;;;;;;;13.53;12.13;;;;;;;5.30;53.83;97508.75;8305753;28;20209;-79
2021/01/07 15:47:04;;;;;;;15.00;13.40;;;;;;;5.47;54.09;97511.63;8204569;29;20700;-79
2021/01/07 15:51:10;;;;;;;15.17;13.50;;;;;;;5.44;54.45;97504.03;8266171;28;20204;-79
2021/01/07 15:55:17;;;;;;;17.13;13.83;;;;;;;5.34;54.62;97496.66;8304062;28;20727;-79
2021/01/07 15:59:23;;;;;;;17.40;13.33;;;;;;;5.39;54.69;97512.78;8303622;28;20225;-79
2021/01/07 16:03:34;;;;;;;17.33;14.37;;;;;;;5.46;54.42;97506.53;8304207;28;20204;-79
2021/01/07 16:08:15;;;;;;;16.80;14.47;;;;;;;5.37;54.38;97505.13;8303464;28;20194;-79
2021/01/07 16:12:28;;;;;;;16.23;13.83;;;;;;;5.38;54.70;97511.09;8303049;28;20220;-79
2021/01/07 16:16:32;;;;;;;16.90;13.93;;;;;;;5.24;55.12;97509.78;8304187;28;20229;-79
2021/01/07 16:20:34;;;;;;;16.87;13.57;;;;;;;5.28;55.49;97513.94;8303367;28;20231;-79
2021/01/07 16:24:44;;;;;;;15.57;12.97;;;;;;;5.47;54.82;97513.38;8302491;28;20193;-79
2021/01/07 16:28:46;;;;;;;18.50;15.10;;;;;;;5.41;55.22;97511.84;8302729;28;20201;-79
2021/01/07 16:32:48;;;;;;;16.80;13.97;;;;;;;5.24;55.28;97508.94;8303316;28;20224;-79
2021/01/07 16:36:50;;;;;;;15.50;13.17;;;;;;;5.20;55.33;97523.59;8303542;28;20198;-79
2021/01/07 16:40:56;;;;;;;16.07;14.23;;;;;;;5.28;54.88;97513.09;8304196;28;20197;-80
2021/01/07 16:44:59;;;;;;;16.07;13.53;;;;;;;5.33;54.92;97518.09;8306645;28;20650;-78
2021/01/07 16:49:00;;;;;;;14.63;13.00;;;;;;;5.28;55.27;97516.50;8300132;28;20578;-78
2021/01/07 16:53:03;;;;;;;15.23;13.67;;;;;;;5.21;55.63;97503.91;8301834;28;20217;-78
2021/01/07 16:57:17;;;;;;;17.07;13.70;;;;;;;5.27;55.55;97514.84;8494046;27;20593;-72
2021/01/07 17:01:19;;;;;;;18.63;14.73;;;;;;;5.05;55.99;97519.75;8494320;27;20201;-72
2021/01/07 17:05:21;;;;;;;19.90;15.33;;;;;;;5.11;56.20;97513.59;8493168;28;20223;-73
2021/01/07 17:09:23;;;;;;;16.53;14.60;;;;;;;4.99;56.55;97519.06;8493380;28;20200;-75
2021/01/07 17:13:25;;;;;;;21.83;17.57;;;;;;;5.12;56.40;97517.00;8493120;28;20260;-75
2021/01/07 17:17:27;;;;;;;16.50;14.53;;;;;;;4.92;56.95;97521.00;8493153;27;20231;-74
2021/01/07 17:21:29;;;;;;;15.80;14.20;;;;;;;4.95;57.19;97522.63;8492617;27;20273;-73
2021/01/07 17:25:30;;;;;;;18.00;16.10;;;;;;;4.99;56.75;97516.50;8492353;27;20212;-74
2021/01/07 17:29:33;;;;;;;16.60;14.80;;;;;;;4.95;57.24;97512.34;8492910;27;20193;-73
2021/01/07 17:33:35;;;;;;;15.60;13.77;;;;;;;4.98;56.70;97517.41;8491885;27;20221;-73
2021/01/07 17:37:37;;;;;;;14.67;13.17;;;;;;;4.84;56.76;97510.94;8491937;27;20566;-73
2021/01/07 17:41:39;;;;;;;16.43;14.37;;;;;;;4.70;57.09;97507.91;8491251;27;20254;-72
2021/01/07 17:45:43;;;;;;;18.70;14.70;;;;;;;5.09;60.36;97515.38;8492260;27;20198;-73
2021/01/07 17:49:45;;;;;;;14.73;13.20;;;;;;;5.00;56.99;97516.47;8491906;27;20193;-73
2021/01/07 17:53:46;;;;;;;15.27;13.60;;;;;;;4.96;57.00;97517.44;8492737;27;20696;-71
2021/01/07 17:57:49;;;;;;;14.97;13.37;;;;;;;5.02;56.75;97509.56;8492225;27;20204;-75
2021/01/07 18:01:51;;;;;;;16.88;15.18;;;;;;;5.29;55.67;97513.06;8490609;27;20427;-72
2021/01/07 18:05:53;;;;;;;16.20;14.50;;;;;;;4.95;56.66;97510.66;8484621;27;20202;-72
2021/01/07 18:09:55;;;;;;;14.00;12.43;;;;;;;4.99;56.50;97513.94;8469300;28;20194;-71
2021/01/07 18:13:56;;;;;;;16.03;13.40;;;;;;;4.94;56.65;97508.13;8468433;27;20594;-70
2021/01/07 18:17:59;;;;;;;15.50;13.90;;;;;;;4.83;56.90;97506.69;8468054;28;20224;-70
2021/01/07 18:22:01;;;;;;;15.07;13.50;;;;;;;4.75;57.00;97515.50;8468029;28;20524;-70
2021/01/07 18:26:03;;;;;;;16.13;14.07;;;;;;;4.58;57.90;97521.94;8467741;28;20201;-70
2021/01/07 18:30:06;;;;;;;16.27;14.63;;;;;;;4.76;57.68;97530.00;8468558;28;20200;-70
2021/01/07 18:34:10;;;;;;;16.03;14.27;;;;;;;4.74;57.74;97526.63;8468065;28;20643;-70
2021/01/07 18:38:12;;;;;;;16.60;14.60;;;;;;;4.60;57.77;97530.44;8467375;27;20213;-70
2021/01/07 18:42:14;;;;;;;16.97;15.20;;;;;;;4.57;58.48;97532.22;8466934;28;20209;-70
2021/01/07 18:46:16;;;;;;;19.40;14.93;;;;;;;4.49;58.50;97520.47;8468223;28;20201;-70
2021/01/07 18:50:18;;;;;;;16.40;14.70;;;;;;;4.57;58.32;97524.53;8466172;28;20197;-69
2021/01/07 18:54:20;;;;;;;16.97;15.03;;;;;;;4.48;58.25;97526.47;8467217;28;20557;-70
2021/01/07 18:58:22;;;;;;;16.43;14.73;;;;;;;4.68;57.89;97519.94;8466699;28;20209;-70